createdAt,value
2023-05-05T00:02:50.612Z,100076.27
2023-05-05T00:07:54.233Z,100078.31
2023-05-05T00:12:57.221Z,100076.22
2023-05-05T00:18:00.257Z,100077.06
2023-05-05T00:23:04.166Z,100074.52
2023-05-05T00:28:07.116Z,100071.80
2023-05-05T00:33:10.193Z,100068.02
2023-05-05T00:38:13.171Z,100069.36
2023-05-05T00:43:16.203Z,100064.44
2023-05-05T00:48:19.624Z,100061.21
2023-05-05T00:53:23.276Z,100059.17
2023-05-05T00:58:26.095Z,100059.11
2023-05-05T01:03:29.131Z,100055.17
2023-05-05T01:09:20.147Z,100050.38
2023-05-05T01:14:53.068Z,100054.50
2023-05-05T01:20:21.671Z,100054.31
2023-05-05T01:26:12.450Z,100057.27
2023-05-05T01:31:32.047Z,100057.38
2023-05-05T01:36:42.372Z,100053.48
2023-05-05T01:41:54.339Z,100051.34
2023-05-05T01:46:59.656Z,100046.11
2023-05-05T01:52:05.107Z,100044.41
2023-05-05T01:57:10.185Z,100037.83
2023-05-05T02:02:15.755Z,100034.89
2023-05-05T02:07:21.177Z,100034.21
2023-05-05T02:12:24.170Z,100027.91
2023-05-05T02:17:27.829Z,100031.98
2023-05-05T02:22:31.724Z,100023.88
2023-05-05T02:27:36.218Z,100019.05
2023-05-05T02:32:53.961Z,100017.97
2023-05-05T02:38:02.877Z,100012.06
2023-05-05T02:43:10.031Z,100019.46
2023-05-05T02:48:13.299Z,100027.13
2023-05-05T02:53:16.648Z,100026.17
2023-05-05T02:58:33.355Z,100026.91
2023-05-05T03:03:47.568Z,100025.02
2023-05-05T03:08:56.905Z,100023.25
2023-05-05T03:14:13.371Z,100018.06
2023-05-05T03:19:20.406Z,100015.20
2023-05-05T03:24:23.471Z,100013.78
2023-05-05T03:29:26.835Z,100017.36
2023-05-05T03:34:29.804Z,100023.69
2023-05-05T03:39:32.768Z,100020.39
2023-05-05T03:44:35.704Z,100018.79
2023-05-05T03:49:38.674Z,100019.59
2023-05-05T03:54:42.586Z,100022.02
2023-05-05T03:59:45.731Z,100023.73
2023-05-05T04:04:48.735Z,100024.20
2023-05-05T04:09:51.868Z,100030.10
2023-05-05T04:14:54.892Z,100030.86
2023-05-05T04:19:57.861Z,100029.08
2023-05-05T04:25:01.344Z,100030.22
2023-05-05T04:30:05.150Z,100039.70
2023-05-05T04:35:08.600Z,100036.35
2023-05-05T04:40:12.095Z,100046.55
2023-05-05T04:45:15.322Z,100049.74
2023-05-05T04:50:18.332Z,100054.23
2023-05-05T04:55:21.479Z,100056.50
2023-05-05T05:00:24.587Z,100055.46
2023-05-05T05:05:27.561Z,100060.83
2023-05-05T05:10:30.559Z,100062.55
2023-05-05T05:15:33.586Z,100062.74
2023-05-05T05:20:36.564Z,100062.51
2023-05-05T05:25:39.553Z,100068.55
2023-05-05T05:30:42.519Z,100082.29
2023-05-05T05:35:45.746Z,100083.70
2023-05-05T05:40:48.673Z,100076.88
2023-05-05T05:45:52.104Z,100079.20
2023-05-05T05:50:56.466Z,100076.94
2023-05-05T05:55:59.464Z,100077.83
2023-05-05T06:01:04.129Z,100079.03
2023-05-05T06:06:07.698Z,100084.96
2023-05-05T06:11:10.843Z,100085.55
2023-05-05T06:16:13.816Z,100086.88
2023-05-05T06:21:16.851Z,100081.86
2023-05-05T06:26:19.875Z,100085.38
2023-05-05T06:31:22.961Z,100086.69
2023-05-05T06:36:26.372Z,100091.96
2023-05-05T06:41:29.302Z,100085.92
2023-05-05T06:46:32.288Z,100088.10
2023-05-05T06:51:35.626Z,100085.16
2023-05-05T06:56:38.587Z,100085.07
2023-05-05T07:01:41.646Z,100084.23
2023-05-05T07:06:44.631Z,100084.23
2023-05-05T07:11:47.599Z,100074.86
2023-05-05T07:16:50.598Z,100072.13
2023-05-05T07:21:53.601Z,100079.98
2023-05-05T07:26:58.145Z,100080.84
2023-05-05T07:32:01.122Z,100080.02
2023-05-05T07:37:05.327Z,100079.02
2023-05-05T07:42:08.479Z,100084.44
2023-05-05T07:47:11.506Z,100090.25
2023-05-05T07:52:14.491Z,100086.23
2023-05-05T07:57:17.531Z,100083.02
2023-05-05T08:02:23.046Z,100080.15
2023-05-05T08:07:26.098Z,100079.27
2023-05-05T08:12:32.165Z,100076.55
2023-05-05T08:17:49.786Z,100077.30
2023-05-05T08:22:52.726Z,100075.92
2023-05-05T08:27:55.782Z,100078.38
2023-05-05T08:32:59.436Z,100078.04
2023-05-05T08:38:02.472Z,100076.38
2023-05-05T08:43:06.012Z,100081.62
2023-05-05T08:48:10.282Z,100076.33
2023-05-05T08:53:17.839Z,100077.91
2023-05-05T08:58:26.981Z,100074.09
2023-05-05T09:03:32.326Z,100072.47
2023-05-05T09:08:37.436Z,100071.11
2023-05-05T09:19:05.097Z,100070.91
2023-05-05T09:24:13.446Z,100073.88
2023-05-05T09:29:21.387Z,100071.59
2023-05-05T09:34:24.454Z,100074.66
2023-05-05T09:39:27.533Z,100075.10
2023-05-05T09:44:36.420Z,100080.33
2023-05-05T09:49:39.513Z,100075.02
2023-05-05T09:54:43.795Z,100067.67
2023-05-05T09:59:58.274Z,100068.90
2023-05-05T10:05:18.322Z,100063.11
2023-05-05T10:10:21.566Z,100056.75
2023-05-05T10:15:24.675Z,100054.06
2023-05-05T10:20:27.990Z,100051.77
2023-05-05T10:25:38.493Z,100046.48
2023-05-05T10:30:46.419Z,100045.89
2023-05-05T10:35:53.624Z,100041.29
2023-05-05T10:40:59.277Z,100042.33
2023-05-05T10:46:02.794Z,100034.48
2023-05-05T10:51:31.119Z,100032.70
2023-05-05T10:56:43.016Z,100026.95
2023-05-05T11:01:46.051Z,100025.73
2023-05-05T11:07:14.743Z,100021.29
2023-05-05T11:12:18.203Z,100022.00
2023-05-05T11:17:47.781Z,100014.67
2023-05-05T11:23:02.780Z,100008.46
2023-05-05T11:28:25.663Z,100003.81
2023-05-05T11:33:33.525Z,100000.44
2023-05-05T11:38:36.438Z,99996.73
2023-05-05T11:43:41.847Z,99994.99
2023-05-05T11:48:46.479Z,99994.05
2023-05-05T11:53:50.977Z,99989.77
2023-05-05T11:59:11.295Z,99986.71
2023-05-05T12:04:16.178Z,99988.38
2023-05-05T12:09:21.588Z,99981.48
2023-05-05T12:14:26.079Z,99980.17
2023-05-05T12:19:33.156Z,99983.44
2023-05-05T12:24:36.249Z,99986.62
2023-05-05T12:29:39.425Z,99989.67
2023-05-05T12:34:42.314Z,99989.63
2023-05-05T12:39:45.666Z,99987.96
2023-05-05T12:44:49.336Z,99989.05
2023-05-05T12:49:52.950Z,99987.99
2023-05-05T12:54:57.919Z,99984.20
2023-05-05T13:00:13.622Z,99978.96
2023-05-05T13:05:28.914Z,99980.06
2023-05-05T13:10:31.922Z,99971.21
2023-05-05T13:15:35.028Z,99966.27
2023-05-05T13:20:37.878Z,99967.09
2023-05-05T13:25:40.740Z,99967.64
2023-05-05T13:30:43.551Z,99969.33
2023-05-05T13:35:46.423Z,99970.58
2023-05-05T13:40:49.327Z,99964.44
2023-05-05T13:45:53.628Z,99962.61
2023-05-05T13:50:56.680Z,99962.20
2023-05-05T13:55:59.804Z,99962.46
2023-05-05T14:01:03.358Z,99965.64
2023-05-05T14:06:07.615Z,99965.52
2023-05-05T14:11:10.795Z,99961.70
2023-05-05T14:16:14.059Z,99960.06
2023-05-05T14:21:17.049Z,99957.19
2023-05-05T14:26:20.040Z,99957.36
2023-05-05T14:31:23.170Z,99961.20
2023-05-05T14:36:26.980Z,99962.91
2023-05-05T14:41:29.953Z,99953.73
2023-05-05T14:46:33.635Z,99959.15
2023-05-05T14:51:36.560Z,99962.09
2023-05-05T14:56:39.575Z,99953.73
2023-05-05T15:01:42.612Z,99952.65
2023-05-05T15:06:45.793Z,99949.12
2023-05-05T15:11:48.681Z,99947.66
2023-05-05T15:16:51.824Z,99951.39
2023-05-05T15:21:55.570Z,99961.83
2023-05-05T15:26:58.549Z,99961.54
2023-05-05T15:32:01.562Z,99966.98
2023-05-05T15:37:04.544Z,99972.73
2023-05-05T15:42:07.583Z,99973.77
2023-05-05T15:47:11.004Z,99971.84
2023-05-05T15:52:14.128Z,99969.96
2023-05-05T15:57:21.579Z,99973.14
2023-05-05T16:02:25.070Z,99969.08
2023-05-05T16:07:28.099Z,99965.93
2023-05-05T16:12:31.258Z,99964.66
2023-05-05T16:17:34.136Z,99959.08
2023-05-05T16:22:37.075Z,99957.59
2023-05-05T16:27:39.905Z,99964.48
2023-05-05T16:32:43.116Z,99968.16
2023-05-05T16:37:49.085Z,99970.18
2023-05-05T16:42:52.021Z,99968.05
2023-05-05T16:47:57.730Z,99972.11
2023-05-05T16:53:00.821Z,99971.89
2023-05-05T16:58:04.726Z,99979.89
2023-05-05T17:03:07.657Z,99984.27
2023-05-05T17:08:14.174Z,99989.70
2023-05-05T17:13:17.277Z,99992.10
2023-05-05T17:18:22.778Z,99998.54
2023-05-05T17:23:25.752Z,100008.38
2023-05-05T17:28:28.712Z,100008.73
2023-05-05T17:33:31.682Z,100012.98
2023-05-05T17:38:34.690Z,100010.65
2023-05-05T17:43:37.682Z,100014.70
2023-05-05T17:48:40.675Z,100019.22
2023-05-05T17:53:43.704Z,100014.34
2023-05-05T17:58:46.730Z,100020.15
2023-05-05T18:03:50.261Z,100028.13
2023-05-05T18:08:53.088Z,100035.73
2023-05-05T18:13:56.333Z,100044.52
2023-05-05T18:18:59.296Z,100048.95
2023-05-05T18:24:15.721Z,100053.41
2023-05-05T18:29:22.913Z,100054.81
2023-05-05T18:34:26.364Z,100058.23
2023-05-05T18:39:32.326Z,100069.05
2023-05-05T18:44:35.752Z,100067.89
2023-05-05T18:49:38.621Z,100076.70
2023-05-05T18:54:41.560Z,100081.73
2023-05-05T18:59:44.607Z,100075.64
2023-05-05T19:04:47.661Z,100078.94
2023-05-05T19:09:50.745Z,100082.14
2023-05-05T19:14:53.730Z,100085.27
2023-05-05T19:19:56.716Z,100086.15
2023-05-05T19:24:59.708Z,100085.53
2023-05-05T19:30:07.534Z,100084.77
2023-05-05T19:35:11.900Z,100080.90
2023-05-05T19:40:15.089Z,100078.58
2023-05-05T19:45:18.225Z,100083.20
2023-05-05T19:50:21.781Z,100087.63
2023-05-05T19:55:24.605Z,100087.88
2023-05-05T20:00:27.687Z,100095.63
2023-05-05T20:05:30.950Z,100091.52
2023-05-05T20:10:34.445Z,100087.36
2023-05-05T20:15:37.313Z,100085.48
2023-05-05T20:20:40.677Z,100087.31
2023-05-05T20:25:43.641Z,100092.08
2023-05-05T20:30:46.788Z,100093.35
2023-05-05T20:35:49.780Z,100094.36
2023-05-05T20:40:52.853Z,100101.72
2023-05-05T20:45:55.837Z,100097.42
2023-05-05T20:50:58.983Z,100098.98
2023-05-05T20:56:02.038Z,100097.91
2023-05-05T21:01:05.095Z,100101.11
2023-05-05T21:06:08.084Z,100097.55
2023-05-05T21:11:11.070Z,100096.85
2023-05-05T21:16:14.186Z,100095.91
2023-05-05T21:21:17.326Z,100092.96
2023-05-05T21:26:21.062Z,100093.96
2023-05-05T21:31:24.052Z,100090.91
2023-05-05T21:36:27.478Z,100091.16
2023-05-05T21:41:30.819Z,100091.91
2023-05-05T21:46:33.960Z,100097.86
2023-05-05T21:51:37.391Z,100094.13
2023-05-05T21:56:40.370Z,100091.12
2023-05-05T22:01:43.388Z,100096.43
2023-05-05T22:06:46.376Z,100096.36
2023-05-05T22:11:49.414Z,100092.77
2023-05-05T22:16:52.660Z,100086.46
2023-05-05T22:21:57.456Z,100083.77
2023-05-05T22:27:00.472Z,100083.40
2023-05-05T22:32:03.482Z,100084.47
2023-05-05T22:37:06.476Z,100081.97
2023-05-05T22:42:09.616Z,100075.18
2023-05-05T22:47:13.389Z,100073.95
2023-05-05T22:52:16.376Z,100072.59
2023-05-05T22:57:19.410Z,100072.48
2023-05-05T23:02:22.478Z,100070.44
2023-05-05T23:07:25.583Z,100070.95
2023-05-05T23:12:28.623Z,100066.63
2023-05-05T23:17:31.628Z,100067.36
2023-05-05T23:22:34.589Z,100060.93
2023-05-05T23:27:40.037Z,100057.16
2023-05-05T23:32:44.970Z,100055.70
2023-05-05T23:37:48.033Z,100061.08
2023-05-05T23:42:51.028Z,100064.22
2023-05-05T23:47:54.248Z,100061.98
2023-05-05T23:52:57.299Z,100060.20
2023-05-05T23:58:00.268Z,100054.52
